createdAt,value
2019-02-17T00:01:40.858Z,668.13
2019-02-17T00:04:12.139Z,707.50
2019-02-17T00:06:43.461Z,814.43
2019-02-17T00:09:14.739Z,736.57
2019-02-17T00:11:46.050Z,737.93
2019-02-17T00:14:17.458Z,796.70
2019-02-17T00:16:48.777Z,731.57
2019-02-17T00:19:20.142Z,686.37
2019-02-17T00:21:51.454Z,699.67
2019-02-17T00:24:22.747Z,708.13
2019-02-17T00:26:53.967Z,672.80
2019-02-17T00:29:25.297Z,645.30
2019-02-17T00:31:56.733Z,617.23
2019-02-17T00:34:28.100Z,551.33
2019-02-17T00:36:59.514Z,602.47
2019-02-17T00:39:30.823Z,662.83
2019-02-17T00:42:02.194Z,637.53
2019-02-17T00:44:33.522Z,702.23
2019-02-17T00:47:04.824Z,611.80
2019-02-17T00:49:36.217Z,619.33
2019-02-17T00:52:07.628Z,539.33
2019-02-17T00:54:38.927Z,569.30
2019-02-17T00:57:10.226Z,570.60
2019-02-17T00:59:41.638Z,565.33
2019-02-17T01:02:13.069Z,657.13
2019-02-17T01:04:44.402Z,579.00
2019-02-17T01:07:15.832Z,560.33
2019-02-17T01:09:47.116Z,559.27
2019-02-17T01:12:18.456Z,591.17
2019-02-17T01:14:51.106Z,573.07
2019-02-17T01:17:22.476Z,571.33
2019-02-17T01:19:53.845Z,638.57
2019-02-17T01:22:25.152Z,631.83
2019-02-17T01:24:56.434Z,582.20
2019-02-17T01:27:27.864Z,646.13
2019-02-17T01:29:59.162Z,711.17
2019-02-17T01:32:30.516Z,643.07
2019-02-17T01:35:01.905Z,563.23
2019-02-17T01:37:33.211Z,561.43
2019-02-17T01:40:07.151Z,522.00
2019-02-17T01:42:39.863Z,515.40
2019-02-17T01:45:11.462Z,510.43
2019-02-17T01:47:42.896Z,477.87
2019-02-17T01:50:14.663Z,445.20
2019-02-17T01:52:46.094Z,430.90
2019-02-17T01:55:17.380Z,468.17
2019-02-17T01:57:48.792Z,498.67
2019-02-17T02:00:20.115Z,477.37
2019-02-17T02:02:51.618Z,477.70
2019-02-17T02:05:23.001Z,488.70
2019-02-17T02:07:54.342Z,476.30
2019-02-17T02:10:25.642Z,485.57
2019-02-17T02:12:56.922Z,456.60
2019-02-17T02:15:28.175Z,475.40
2019-02-17T02:17:59.534Z,482.23
2019-02-17T02:20:30.994Z,466.87
2019-02-17T02:23:02.329Z,466.53
2019-02-17T02:25:33.603Z,498.17
2019-02-17T02:28:04.912Z,493.23
2019-02-17T02:30:36.286Z,466.33
2019-02-17T02:33:07.598Z,462.70
2019-02-17T02:35:38.962Z,407.70
2019-02-17T02:38:10.279Z,412.47
2019-02-17T02:40:41.689Z,413.60
2019-02-17T02:43:13.011Z,424.73
2019-02-17T02:45:44.281Z,426.73
2019-02-17T02:48:16.039Z,423.13
2019-02-17T02:50:47.429Z,444.57
2019-02-17T02:53:18.858Z,425.17
2019-02-17T02:55:50.279Z,464.80
2019-02-17T02:58:21.601Z,463.03
2019-02-17T03:00:53.017Z,459.77
2019-02-17T03:03:24.470Z,460.87
2019-02-17T03:06:09.439Z,458.97
2019-02-17T03:08:40.811Z,457.03
2019-02-17T03:11:12.030Z,445.43
2019-02-17T03:13:43.454Z,423.73
2019-02-17T03:16:14.847Z,446.20
2019-02-17T03:18:46.157Z,449.60
2019-02-17T03:21:17.423Z,463.13
2019-02-17T03:23:48.872Z,454.83
2019-02-17T03:26:23.335Z,465.43
2019-02-17T03:28:54.750Z,448.63
2019-02-17T03:31:26.026Z,435.00
2019-02-17T03:33:57.486Z,421.97
2019-02-17T03:36:28.744Z,421.00
2019-02-17T03:39:00.159Z,407.90
2019-02-17T03:41:33.257Z,409.57
2019-02-17T03:44:05.861Z,433.07
2019-02-17T03:46:37.270Z,408.47
2019-02-17T03:49:08.726Z,376.83
2019-02-17T03:54:37.278Z,380.23
2019-02-17T03:57:08.558Z,387.40
2019-02-17T03:59:40.002Z,393.50
2019-02-17T04:02:11.391Z,402.87
2019-02-17T04:04:42.772Z,388.13
2019-02-17T04:07:14.086Z,441.20
2019-02-17T04:09:45.486Z,437.20
2019-02-17T04:12:16.881Z,428.23
2019-02-17T04:14:48.233Z,426.10
2019-02-17T04:17:20.189Z,346.37
2019-02-17T04:19:57.453Z,402.73
2019-02-17T04:22:29.138Z,381.70
2019-02-17T04:25:04.165Z,400.90
2019-02-17T04:27:39.752Z,382.70
2019-02-17T04:30:13.067Z,417.53
2019-02-17T04:32:44.362Z,453.87
2019-02-17T04:35:15.787Z,451.47
2019-02-17T04:37:47.114Z,429.70
2019-02-17T04:40:18.947Z,413.00
2019-02-17T04:42:50.358Z,409.33
2019-02-17T04:45:22.306Z,396.93
2019-02-17T04:47:53.713Z,363.50
2019-02-17T04:50:25.154Z,330.93
2019-02-17T04:52:56.461Z,303.63
2019-02-17T04:55:30.451Z,361.07
2019-02-17T04:58:02.658Z,427.93
2019-02-17T05:00:40.309Z,470.47
2019-02-17T05:03:07.176Z,475.17
2019-02-17T05:05:38.667Z,434.07
2019-02-17T05:08:12.137Z,421.63
2019-02-17T05:10:43.689Z,422.47
2019-02-17T05:13:15.098Z,300.77
2019-02-17T05:15:46.583Z,363.97
2019-02-17T05:18:17.883Z,289.60
2019-02-17T05:20:49.280Z,304.47
2019-02-17T05:23:20.560Z,368.13
2019-02-17T05:25:51.986Z,329.43
2019-02-17T05:28:23.371Z,295.37
2019-02-17T05:30:54.790Z,340.60
2019-02-17T05:33:26.068Z,323.43
2019-02-17T05:35:57.611Z,309.10
2019-02-17T05:38:29.011Z,281.93
2019-02-17T05:41:00.275Z,271.40
2019-02-17T05:43:31.659Z,288.03
2019-02-17T05:46:02.988Z,280.70
2019-02-17T05:48:34.350Z,292.07
2019-02-17T05:51:36.223Z,280.70
2019-02-17T05:53:50.038Z,223.20
2019-02-17T05:56:21.457Z,213.70
2019-02-17T05:58:52.709Z,200.37
2019-02-17T06:01:24.037Z,210.07
2019-02-17T06:03:55.310Z,196.37
2019-02-17T06:06:28.001Z,252.73
2019-02-17T06:08:59.390Z,288.63
2019-02-17T06:11:30.845Z,291.20
2019-02-17T06:14:02.105Z,280.70
2019-02-17T06:16:33.433Z,208.83
2019-02-17T06:19:04.714Z,227.17
2019-02-17T06:21:36.061Z,236.20
2019-02-17T06:24:07.441Z,251.03
2019-02-17T06:26:38.883Z,237.87
2019-02-17T06:29:10.180Z,180.60
2019-02-17T06:31:41.614Z,179.93
2019-02-17T06:34:13.000Z,198.73
2019-02-17T06:36:44.447Z,212.67
2019-02-17T06:39:17.071Z,293.00
2019-02-17T06:41:48.825Z,399.27
2019-02-17T06:44:21.882Z,450.80
2019-02-17T06:46:56.110Z,346.53
2019-02-17T06:49:27.519Z,351.27
2019-02-17T06:51:58.759Z,322.77
2019-02-17T06:54:30.163Z,322.47
2019-02-17T06:57:03.124Z,288.77
2019-02-17T06:59:34.443Z,295.17
2019-02-17T07:02:05.769Z,321.13
2019-02-17T07:04:41.737Z,359.07
2019-02-17T07:07:13.321Z,281.50
2019-02-17T07:09:45.362Z,235.80
2019-02-17T07:12:16.900Z,224.90
2019-02-17T07:14:48.441Z,198.73
2019-02-17T07:17:25.499Z,196.10
2019-02-17T07:19:58.954Z,168.43
2019-02-17T07:22:30.711Z,158.10
2019-02-17T07:25:05.297Z,150.73
2019-02-17T07:27:36.937Z,158.83
2019-02-17T07:30:08.194Z,154.67
2019-02-17T07:32:39.538Z,142.20
2019-02-17T07:35:10.823Z,125.33
2019-02-17T07:37:42.129Z,138.97
2019-02-17T07:40:13.422Z,129.40
2019-02-17T07:42:44.767Z,128.13
2019-02-17T07:45:16.038Z,135.23
2019-02-17T07:47:47.359Z,135.00
2019-02-17T07:50:18.628Z,137.73
2019-02-17T07:52:50.071Z,137.27
2019-02-17T07:55:21.434Z,144.27
2019-02-17T07:57:52.853Z,150.63
2019-02-17T08:00:24.087Z,148.53
2019-02-17T08:02:55.484Z,161.43
2019-02-17T08:05:26.844Z,173.20
2019-02-17T08:08:01.022Z,167.50
2019-02-17T08:10:32.390Z,163.17
2019-02-17T08:13:03.810Z,157.40
2019-02-17T08:15:35.082Z,147.93
2019-02-17T08:18:06.506Z,158.70
2019-02-17T08:20:37.862Z,160.23
2019-02-17T08:23:09.173Z,148.30
2019-02-17T08:25:42.027Z,153.20
2019-02-17T08:28:13.450Z,140.47
2019-02-17T08:30:44.918Z,144.10
2019-02-17T08:36:06.638Z,141.67
2019-02-17T08:38:38.098Z,160.03
2019-02-17T08:41:09.411Z,153.23
2019-02-17T08:43:42.198Z,159.13
2019-02-17T08:46:26.397Z,147.30
2019-02-17T08:48:57.708Z,120.13
2019-02-17T08:51:28.991Z,127.90
2019-02-17T08:54:00.320Z,129.20
2019-02-17T08:56:31.566Z,120.63
2019-02-17T08:59:02.894Z,112.37
2019-02-17T09:01:34.270Z,92.10
2019-02-17T09:04:06.950Z,79.47
2019-02-17T09:06:38.286Z,71.57
2019-02-17T09:09:09.632Z,78.80
2019-02-17T09:11:41.061Z,70.63
2019-02-17T09:14:12.360Z,63.33
2019-02-17T09:16:43.652Z,59.97
2019-02-17T09:19:15.127Z,69.40
2019-02-17T09:21:46.382Z,61.63
2019-02-17T09:24:17.853Z,62.63
2019-02-17T09:26:49.086Z,65.13
2019-02-17T09:29:20.531Z,59.07
2019-02-17T09:31:51.892Z,57.20
2019-02-17T09:34:23.212Z,62.05
2019-02-17T09:36:54.573Z,57.27
2019-02-17T09:39:27.275Z,57.47
2019-02-17T09:41:58.596Z,63.37
2019-02-17T09:44:29.922Z,55.50
2019-02-17T09:47:01.281Z,52.67
2019-02-17T09:49:32.585Z,47.08
2019-02-17T09:52:03.850Z,55.67
2019-02-17T09:54:35.174Z,51.75
2019-02-17T09:57:13.922Z,48.80
2019-02-17T09:59:45.351Z,51.83
2019-02-17T10:02:25.996Z,48.33
2019-02-17T10:04:49.787Z,52.30
2019-02-17T10:07:22.654Z,50.28
2019-02-17T10:09:54.099Z,44.33
2019-02-17T10:12:25.443Z,47.60
2019-02-17T10:14:58.103Z,48.13
2019-02-17T10:17:29.402Z,45.85
2019-02-17T10:20:00.769Z,40.30
2019-02-17T10:22:32.050Z,46.33
2019-02-17T10:25:03.519Z,31.50
2019-02-17T10:27:34.811Z,44.25
2019-02-17T10:30:10.540Z,47.78
2019-02-17T10:32:44.370Z,41.00
2019-02-17T10:35:15.796Z,32.20
2019-02-17T10:37:47.219Z,31.97
2019-02-17T10:40:20.175Z,34.40
2019-02-17T10:42:52.253Z,35.33
2019-02-17T10:45:23.547Z,31.85
2019-02-17T10:47:57.301Z,35.25
2019-02-17T10:50:28.851Z,38.23
2019-02-17T10:53:00.830Z,33.92
2019-02-17T10:55:33.111Z,37.93
2019-02-17T10:58:05.353Z,36.20
2019-02-17T11:00:36.777Z,35.63
2019-02-17T11:03:08.549Z,33.90
2019-02-17T11:05:41.274Z,32.63
2019-02-17T11:08:14.376Z,33.78
2019-02-17T11:10:48.157Z,33.20
2019-02-17T11:13:19.672Z,33.13
2019-02-17T11:15:51.506Z,33.92
2019-02-17T11:18:24.192Z,38.40
2019-02-17T11:20:55.651Z,35.28
2019-02-17T11:23:27.804Z,28.80
2019-02-17T11:26:00.585Z,30.70
2019-02-17T11:28:32.265Z,30.82
2019-02-17T11:31:03.536Z,33.92
2019-02-17T11:33:36.179Z,35.38
2019-02-17T11:36:08.915Z,34.75
2019-02-17T11:38:40.191Z,28.10
2019-02-17T11:41:12.649Z,38.23
2019-02-17T11:43:44.179Z,34.65
2019-02-17T11:46:15.612Z,32.23
2019-02-17T11:48:47.024Z,34.70
2019-02-17T11:51:18.938Z,34.15
2019-02-17T11:53:53.650Z,33.02
2019-02-17T11:56:26.292Z,32.30
2019-02-17T11:58:57.701Z,34.00
2019-02-17T12:01:29.947Z,37.63
2019-02-17T12:04:03.003Z,32.20
2019-02-17T12:06:36.184Z,31.45
2019-02-17T12:09:08.803Z,24.82
2019-02-17T12:11:43.065Z,32.20
2019-02-17T12:14:18.057Z,31.70
2019-02-17T12:16:49.479Z,31.77
2019-02-17T12:19:20.849Z,35.65
2019-02-17T12:21:55.317Z,28.27
2019-02-17T12:24:28.405Z,31.45
2019-02-17T12:27:05.371Z,30.57
2019-02-17T12:29:42.298Z,32.23
2019-02-17T12:32:14.014Z,34.23
2019-02-17T12:34:45.354Z,33.55
2019-02-17T12:37:16.602Z,33.13
2019-02-17T12:39:51.803Z,27.82
2019-02-17T12:42:23.106Z,35.35
2019-02-17T12:44:56.970Z,31.52
2019-02-17T12:47:27.441Z,30.60
2019-02-17T12:49:58.791Z,26.75
2019-02-17T12:52:30.101Z,33.35
2019-02-17T12:55:01.373Z,27.25
2019-02-17T12:57:32.655Z,29.92
2019-02-17T13:00:06.109Z,28.45
2019-02-17T13:02:37.387Z,28.65
2019-02-17T13:05:09.636Z,28.90
2019-02-17T13:07:42.737Z,27.07
2019-02-17T13:10:15.712Z,25.15
2019-02-17T13:12:47.000Z,30.45
2019-02-17T13:15:18.256Z,26.68
2019-02-17T13:17:49.513Z,28.30
2019-02-17T13:20:20.736Z,25.88
2019-02-17T13:22:51.894Z,30.27
2019-02-17T13:25:24.512Z,31.68
2019-02-17T13:27:57.103Z,29.37
2019-02-17T13:30:28.247Z,26.60
2019-02-17T13:32:59.857Z,31.48
2019-02-17T13:35:31.139Z,36.10
2019-02-17T13:38:04.010Z,34.88
2019-02-17T13:40:35.451Z,29.18
2019-02-17T13:43:06.821Z,33.55
2019-02-17T13:45:38.012Z,29.02
2019-02-17T13:48:09.361Z,35.80
2019-02-17T13:50:41.214Z,32.33
2019-02-17T13:53:14.260Z,31.77
2019-02-17T13:55:46.533Z,29.35
2019-02-17T13:58:20.119Z,30.80
2019-02-17T14:00:53.514Z,33.50
2019-02-17T14:03:27.835Z,31.95
2019-02-17T14:06:01.381Z,28.47
2019-02-17T14:08:33.693Z,29.05
2019-02-17T14:11:04.951Z,26.50
2019-02-17T14:13:36.231Z,32.20
2019-02-17T14:16:07.612Z,28.00
2019-02-17T14:18:40.151Z,28.77
2019-02-17T14:21:13.940Z,30.40
2019-02-17T14:23:45.350Z,42.45
2019-02-17T14:26:16.520Z,33.70
2019-02-17T14:28:50.182Z,29.82
2019-02-17T14:31:22.310Z,42.70
2019-02-17T14:33:58.556Z,34.18
2019-02-17T14:36:29.321Z,36.48
2019-02-17T14:39:01.154Z,29.25
2019-02-17T14:41:34.411Z,33.00
2019-02-17T14:44:07.006Z,31.93
2019-02-17T14:46:39.723Z,34.35
2019-02-17T14:49:11.262Z,30.60
2019-02-17T14:51:42.586Z,45.50
2019-02-17T14:54:13.932Z,39.83
2019-02-17T14:56:45.611Z,33.23
2019-02-17T14:59:17.366Z,33.88
2019-02-17T15:01:49.351Z,34.15
2019-02-17T15:04:22.924Z,38.60
2019-02-17T15:06:55.481Z,39.42
2019-02-17T15:09:28.165Z,37.38
2019-02-17T15:11:59.967Z,46.95
2019-02-17T15:14:32.206Z,45.70
2019-02-17T15:17:05.136Z,49.67
2019-02-17T15:19:38.553Z,49.60
2019-02-17T15:22:12.203Z,58.45
2019-02-17T15:24:46.403Z,72.50
2019-02-17T15:27:21.205Z,64.67
2019-02-17T15:29:55.354Z,54.48
2019-02-17T15:32:30.130Z,51.13
2019-02-17T15:35:03.323Z,57.85
2019-02-17T15:37:36.371Z,39.67
2019-02-17T15:40:13.464Z,39.78
2019-02-17T15:42:48.161Z,42.43
2019-02-17T15:45:21.458Z,37.88
2019-02-17T15:47:53.080Z,33.88
2019-02-17T15:50:24.991Z,35.60
2019-02-17T15:52:57.351Z,34.45
2019-02-17T15:55:29.560Z,31.40
2019-02-17T15:58:01.294Z,32.83
2019-02-17T16:00:34.060Z,32.60
2019-02-17T16:03:05.538Z,26.07
2019-02-17T16:05:36.964Z,26.17
2019-02-17T16:08:08.572Z,25.85
2019-02-17T16:10:40.301Z,28.35
2019-02-17T16:13:11.949Z,40.20
2019-02-17T16:15:43.332Z,43.45
2019-02-17T16:18:14.900Z,44.90
2019-02-17T16:20:47.020Z,38.33
2019-02-17T16:23:18.901Z,37.78
2019-02-17T16:25:50.700Z,34.75
2019-02-17T16:28:22.306Z,34.23
2019-02-17T16:30:53.683Z,46.98
2019-02-17T16:33:25.065Z,48.17
2019-02-17T16:35:56.453Z,50.03
2019-02-17T16:38:27.820Z,50.03
2019-02-17T16:41:00.877Z,58.00
2019-02-17T16:43:32.959Z,50.93
2019-02-17T16:46:05.663Z,44.23
2019-02-17T16:48:38.282Z,47.33
2019-02-17T16:51:10.186Z,46.60
2019-02-17T16:53:42.921Z,46.03
2019-02-17T16:56:16.534Z,47.13
2019-02-17T16:58:48.910Z,45.13
2019-02-17T17:01:22.527Z,47.53
2019-02-17T17:03:55.291Z,51.83
2019-02-17T17:06:28.360Z,51.83
2019-02-17T17:09:00.179Z,47.23
2019-02-17T17:11:32.533Z,42.37
2019-02-17T17:14:08.980Z,43.73
2019-02-17T17:16:38.825Z,54.00
2019-02-17T17:19:10.178Z,47.53
2019-02-17T17:21:41.802Z,43.03
2019-02-17T17:24:13.906Z,45.13
2019-02-17T17:26:46.394Z,46.90
2019-02-17T17:29:19.612Z,44.03
2019-02-17T17:31:52.171Z,49.40
2019-02-17T17:34:24.652Z,43.47
2019-02-17T17:36:57.658Z,1164.30
2019-02-17T17:39:30.752Z,151.00
2019-02-17T17:42:02.929Z,182.87
2019-02-17T17:44:34.871Z,97.47
2019-02-17T17:47:06.312Z,180.80
2019-02-17T17:49:37.710Z,332.40
2019-02-17T17:52:10.479Z,90.57
2019-02-17T17:54:42.680Z,59.67
2019-02-17T17:57:15.321Z,82.10
2019-02-17T17:59:47.362Z,111.87
2019-02-17T18:02:18.840Z,538.90
2019-02-17T18:04:50.560Z,779.47
2019-02-17T18:07:23.003Z,624.53
2019-02-17T18:09:55.026Z,608.50
2019-02-17T18:12:27.039Z,664.20
2019-02-17T18:15:00.041Z,777.13
2019-02-17T18:17:32.548Z,739.17
2019-02-17T18:20:06.751Z,723.40
2019-02-17T18:22:38.026Z,820.53
2019-02-17T18:25:14.586Z,805.20
2019-02-17T18:27:46.983Z,742.57
2019-02-17T18:30:19.804Z,747.50
2019-02-17T18:32:52.351Z,598.13
2019-02-17T18:35:25.188Z,392.20
2019-02-17T18:37:59.159Z,244.93
2019-02-17T18:40:32.193Z,487.70
2019-02-17T18:43:04.560Z,239.13
2019-02-17T18:45:36.833Z,251.73
2019-02-17T18:48:11.381Z,334.53
2019-02-17T18:50:46.153Z,250.77
2019-02-17T18:53:20.034Z,204.03
2019-02-17T18:55:51.958Z,190.30
2019-02-17T18:58:25.161Z,234.33
2019-02-17T19:00:57.857Z,222.77
2019-02-17T19:03:29.303Z,166.40
2019-02-17T19:06:05.188Z,112.10
2019-02-17T19:08:38.872Z,68.50
2019-02-17T19:11:10.281Z,76.83
2019-02-17T19:13:41.548Z,76.20
2019-02-17T19:16:12.786Z,69.63
2019-02-17T19:18:44.055Z,73.40
2019-02-17T19:21:15.285Z,115.80
2019-02-17T19:23:46.572Z,88.50
2019-02-17T19:26:17.912Z,155.53
2019-02-17T19:28:49.288Z,104.83
2019-02-17T19:31:20.517Z,176.87
2019-02-17T19:33:53.128Z,101.07
2019-02-17T19:36:24.497Z,134.43
2019-02-17T19:38:56.798Z,112.67
2019-02-17T19:41:28.027Z,102.30
2019-02-17T19:43:59.233Z,83.43
2019-02-17T19:46:30.429Z,114.57
2019-02-17T19:49:01.790Z,168.00
2019-02-17T19:51:33.138Z,251.83
2019-02-17T19:54:04.453Z,279.23
2019-02-17T19:56:35.594Z,283.03
2019-02-17T19:59:06.974Z,447.37
2019-02-17T20:01:38.251Z,416.43
2019-02-17T20:04:11.102Z,231.83
2019-02-17T20:06:42.432Z,336.07
2019-02-17T20:09:15.697Z,384.20
2019-02-17T20:11:47.004Z,319.77
2019-02-17T20:14:18.744Z,250.40
2019-02-17T20:16:50.788Z,322.20
2019-02-17T20:19:22.113Z,532.30
2019-02-17T20:21:55.032Z,678.20
2019-02-17T20:24:27.090Z,908.70
2019-02-17T20:27:00.801Z,251.93
2019-02-17T20:29:31.976Z,410.73
2019-02-17T20:32:03.167Z,261.13
2019-02-17T20:34:34.443Z,228.43
2019-02-17T20:37:05.831Z,261.17
2019-02-17T20:39:37.147Z,170.93
2019-02-17T20:42:08.383Z,158.10
2019-02-17T20:44:39.580Z,191.33
2019-02-17T20:47:10.799Z,132.87
2019-02-17T20:49:42.207Z,98.23
2019-02-17T20:52:13.679Z,94.80
2019-02-17T20:54:46.224Z,109.63
2019-02-17T20:57:17.698Z,168.97
2019-02-17T20:59:48.891Z,105.77
2019-02-17T21:02:20.063Z,152.77
2019-02-17T21:04:51.355Z,157.33
2019-02-17T21:07:22.625Z,148.50
2019-02-17T21:09:54.045Z,97.77
2019-02-17T21:12:25.238Z,359.83
2019-02-17T21:14:56.427Z,397.10
2019-02-17T21:17:27.786Z,383.80
2019-02-17T21:19:59.080Z,441.70
2019-02-17T21:22:31.792Z,384.17
2019-02-17T21:25:03.210Z,512.40
2019-02-17T21:27:34.540Z,447.33
2019-02-17T21:30:18.748Z,413.80
2019-02-17T21:32:50.111Z,322.13
2019-02-17T21:35:21.438Z,230.70
2019-02-17T21:37:52.782Z,160.77
2019-02-17T21:40:24.198Z,236.57
2019-02-17T21:42:55.462Z,229.63
2019-02-17T21:45:26.863Z,285.90
2019-02-17T21:47:58.210Z,156.13
2019-02-17T21:50:29.783Z,172.43
2019-02-17T21:53:01.002Z,155.10
2019-02-17T21:55:32.323Z,125.33
2019-02-17T21:58:03.652Z,118.70
2019-02-17T22:00:34.899Z,102.93
2019-02-17T22:03:09.407Z,90.53
2019-02-17T22:05:41.852Z,115.40
2019-02-17T22:08:14.434Z,103.50
2019-02-17T22:10:45.873Z,200.90
2019-02-17T22:13:17.144Z,247.40
2019-02-17T22:15:48.450Z,164.93
2019-02-17T22:18:21.310Z,136.63
2019-02-17T22:20:57.879Z,111.53
2019-02-17T22:23:29.140Z,107.50
2019-02-17T22:26:01.521Z,88.97
2019-02-17T22:28:33.012Z,78.77
2019-02-17T22:31:26.861Z,75.73
2019-02-17T22:33:58.202Z,78.60
2019-02-17T22:36:43.500Z,86.83
2019-02-17T22:39:09.419Z,105.43
2019-02-17T22:41:40.930Z,107.53
2019-02-17T22:44:12.587Z,115.57
2019-02-17T22:46:43.918Z,146.53
2019-02-17T22:49:15.207Z,177.50
2019-02-17T22:51:46.976Z,155.03
2019-02-17T22:54:18.219Z,147.37
2019-02-17T22:56:49.620Z,122.97
2019-02-17T22:59:20.859Z,116.63
2019-02-17T23:01:56.670Z,101.27
2019-02-17T23:04:28.938Z,96.03
2019-02-17T23:07:00.238Z,92.30
2019-02-17T23:09:31.599Z,147.43
2019-02-17T23:12:03.161Z,124.73
2019-02-17T23:14:35.508Z,115.93
2019-02-17T23:17:06.926Z,142.67
2019-02-17T23:19:38.312Z,170.13
2019-02-17T23:22:09.718Z,155.57
2019-02-17T23:24:41.102Z,141.53
2019-02-17T23:27:13.513Z,153.23
2019-02-17T23:29:44.817Z,167.93
2019-02-17T23:32:18.642Z,181.30
2019-02-17T23:34:49.906Z,176.80
2019-02-17T23:37:21.212Z,179.07
2019-02-17T23:39:52.571Z,170.20
2019-02-17T23:42:23.969Z,171.13
2019-02-17T23:44:55.222Z,179.93
2019-02-17T23:47:26.669Z,136.63
2019-02-17T23:49:57.955Z,121.50
2019-02-17T23:52:29.401Z,144.20
2019-02-17T23:55:00.811Z,131.70
2019-02-17T23:57:32.777Z,130.73
